Time;durP1;ratioP1;P1;durP2;ratioP2;P2;SDS_P1;SDS_P2;PMS_P1;PMS_P2;Temp;Humidity;BMP_temperature;BMP_pressure;BME280_temperature;BME280_humidity;BME280_pressure;Samples;Min_cycle;Max_cycle;Signal;HPM_P1;HPM_P2
2024/01/17 00:00:42;;;;;;;0.45;0.45;;;0.40;99.90;;;;;;5010671;28;20036;-73
2024/01/17 00:03:08;;;;;;;0.75;0.50;;;0.30;99.90;;;;;;5015381;28;20037;-73
2024/01/17 00:05:34;;;;;;;0.45;0.43;;;0.40;99.90;;;;;;5011479;28;20033;-73
2024/01/17 00:08:00;;;;;;;4.63;1.10;;;0.40;99.90;;;;;;5014641;28;20041;-73
2024/01/17 00:10:26;;;;;;;0.98;0.50;;;0.30;99.90;;;;;;5015631;28;20055;-73
2024/01/17 00:12:51;;;;;;;1.23;0.75;;;0.30;99.90;;;;;;4992517;28;20025;-73
2024/01/17 00:15:18;;;;;;;1.83;0.28;;;0.30;99.90;;;;;;5012434;28;20052;-73
2024/01/17 00:17:46;;;;;;;1.67;0.75;;;0.30;99.90;;;;;;5009465;28;20038;-73
2024/01/17 00:20:13;;;;;;;1.10;0.68;;;0.30;99.90;;;;;;5012446;28;20037;-73
2024/01/17 00:22:38;;;;;;;5.15;0.70;;;0.30;99.90;;;;;;5009815;28;20099;-73
2024/01/17 00:25:06;;;;;;;1.70;1.00;;;0.30;99.90;;;;;;5020545;28;20041;-73
2024/01/17 00:27:32;;;;;;;1.48;0.77;;;0.30;99.90;;;;;;5011530;28;20123;-73
2024/01/17 00:29:57;;;;;;;1.00;0.90;;;0.30;99.90;;;;;;5011513;28;20505;-73
2024/01/17 00:32:26;;;;;;;2.63;1.15;;;0.30;99.90;;;;;;5020325;28;20072;-73
2024/01/17 00:34:52;;;;;;;1.52;0.95;;;0.30;99.90;;;;;;5019775;28;20041;-73
2024/01/17 00:37:18;;;;;;;1.58;1.00;;;0.30;99.90;;;;;;5010300;28;20657;-74
2024/01/17 00:39:44;;;;;;;1.55;1.10;;;0.20;99.90;;;;;;5011402;28;20042;-74
2024/01/17 00:42:10;;;;;;;1.95;0.68;;;0.30;99.90;;;;;;5004467;28;20037;-73
2024/01/17 00:44:38;;;;;;;2.55;1.42;;;0.30;99.90;;;;;;5012004;28;20036;-72
2024/01/17 00:47:07;;;;;;;1.17;1.05;;;0.30;99.90;;;;;;5004537;28;20049;-73
2024/01/17 00:49:33;;;;;;;1.60;1.23;;;0.30;99.90;;;;;;4992609;28;20050;-74
2024/01/17 00:51:58;;;;;;;0.93;0.90;;;0.20;99.90;;;;;;5011159;28;20048;-73
2024/01/17 00:54:24;;;;;;;0.63;0.50;;;0.30;99.90;;;;;;5011011;28;20052;-73
2024/01/17 00:56:50;;;;;;;2.25;1.35;;;0.30;99.90;;;;;;5011712;28;20076;-73
2024/01/17 00:59:15;;;;;;;9.38;1.00;;;0.30;99.90;;;;;;5010548;28;20079;-73
2024/01/17 01:01:41;;;;;;;1.42;0.82;;;0.30;99.90;;;;;;5011072;28;20484;-73
2024/01/17 01:04:10;;;;;;;2.63;1.02;;;0.30;99.90;;;;;;5001362;28;20586;-73
2024/01/17 01:06:36;;;;;;;1.35;1.00;;;0.20;99.90;;;;;;4995205;28;20141;-73
2024/01/17 01:09:01;;;;;;;1.35;0.95;;;0.30;99.90;;;;;;5009745;28;20561;-73
2024/01/17 01:11:32;;;;;;;1.15;0.90;;;0.20;99.90;;;;;;5011054;28;20045;-73
2024/01/17 01:13:58;;;;;;;3.55;0.88;;;0.30;99.90;;;;;;5010523;28;20037;-73
2024/01/17 01:16:23;;;;;;;2.95;1.27;;;0.20;99.90;;;;;;5011669;28;20056;-73
2024/01/17 01:18:49;;;;;;;1.52;0.60;;;0.20;99.90;;;;;;5019874;28;20109;-73
2024/01/17 01:21:15;;;;;;;0.68;0.60;;;0.30;99.90;;;;;;5009252;28;20183;-73
2024/01/17 01:23:41;;;;;;;0.70;0.70;;;0.30;99.90;;;;;;5009855;28;20037;-72
2024/01/17 01:26:07;;;;;;;2.45;1.35;;;0.30;99.90;;;;;;4995742;28;20508;-72
2024/01/17 01:28:32;;;;;;;2.13;0.73;;;0.30;99.90;;;;;;5010690;28;20045;-72
2024/01/17 01:30:58;;;;;;;1.20;1.10;;;0.30;99.90;;;;;;5010165;28;20413;-72
2024/01/17 01:33:24;;;;;;;1.23;0.93;;;0.30;99.90;;;;;;5002548;28;20038;-73
2024/01/17 01:35:49;;;;;;;1.10;0.90;;;0.20;99.90;;;;;;5010144;28;20037;-73
2024/01/17 01:38:15;;;;;;;7.85;0.82;;;0.20;99.90;;;;;;4992136;28;20132;-73
2024/01/17 01:40:42;;;;;;;2.25;1.60;;;0.20;99.90;;;;;;4999609;28;20098;-73
2024/01/17 01:43:21;;;;;;;4.53;1.02;;;0.20;99.90;;;;;;4994068;28;20199;-73
2024/01/17 01:46:11;;;;;;;0.82;0.82;;;0.20;99.90;;;;;;5026512;28;20095;-73
2024/01/17 01:48:38;;;;;;;1.13;0.88;;;0.20;99.90;;;;;;5007329;28;20038;-73
2024/01/17 01:51:04;;;;;;;7.47;2.05;;;0.20;99.90;;;;;;5011529;28;20041;-73
2024/01/17 01:53:33;;;;;;;1.58;1.10;;;0.20;99.90;;;;;;5014047;28;20033;-73
2024/01/17 01:56:00;;;;;;;2.10;1.20;;;0.20;99.90;;;;;;5013480;28;20437;-73
2024/01/17 01:58:27;;;;;;;2.05;1.23;;;0.20;99.90;;;;;;5014082;28;20073;-72
2024/01/17 02:00:55;;;;;;;1.92;0.90;;;0.20;99.90;;;;;;5012810;28;20026;-72
2024/01/17 02:03:23;;;;;;;1.55;0.95;;;0.20;99.90;;;;;;5031047;28;20115;-72
2024/01/17 02:05:48;;;;;;;1.27;0.93;;;0.20;99.90;;;;;;5013432;28;20040;-73
2024/01/17 02:08:15;;;;;;;2.50;1.65;;;0.10;99.90;;;;;;5015083;28;20041;-73
2024/01/17 02:10:41;;;;;;;2.05;1.40;;;0.10;99.90;;;;;;5009402;28;20037;-73
2024/01/17 02:13:07;;;;;;;2.90;1.48;;;0.10;99.90;;;;;;5014198;28;20049;-72
2024/01/17 02:15:33;;;;;;;1.05;0.95;;;0.10;99.90;;;;;;5010547;28;20416;-73
2024/01/17 02:17:59;;;;;;;4.03;1.35;;;0.10;99.90;;;;;;5013212;28;20049;-73
2024/01/17 02:20:25;;;;;;;1.40;1.20;;;0.10;99.90;;;;;;5012878;28;20600;-73
2024/01/17 02:22:51;;;;;;;0.95;0.60;;;0.10;99.90;;;;;;5013850;28;20128;-73
2024/01/17 02:25:17;;;;;;;1.33;1.20;;;0.10;99.90;;;;;;5005828;28;20129;-73
2024/01/17 02:27:42;;;;;;;1.45;1.05;;;0.10;99.90;;;;;;5004818;28;20041;-73
2024/01/17 02:30:09;;;;;;;2.40;1.20;;;0.20;99.90;;;;;;5013932;28;20056;-73
2024/01/17 02:32:35;;;;;;;2.65;2.25;;;0.10;99.90;;;;;;5013237;28;20106;-73
2024/01/17 02:35:02;;;;;;;1.17;1.08;;;0.10;99.90;;;;;;5012886;28;20046;-73
2024/01/17 02:37:28;;;;;;;1.38;0.93;;;0.10;99.90;;;;;;5014295;28;20465;-73
2024/01/17 02:39:54;;;;;;;2.17;1.13;;;0.10;99.90;;;;;;5014114;28;20207;-73
2024/01/17 02:42:20;;;;;;;5.63;1.30;;;0.10;99.90;;;;;;4996867;28;20128;-73
2024/01/17 02:44:46;;;;;;;4.90;1.63;;;0.10;99.90;;;;;;5025306;28;20520;-73
2024/01/17 02:47:12;;;;;;;5.47;1.65;;;0.00;99.90;;;;;;5013600;28;20709;-73
2024/01/17 02:49:38;;;;;;;1.83;1.35;;;0.00;99.90;;;;;;5009560;28;20037;-73
2024/01/17 02:52:05;;;;;;;3.22;1.88;;;0.00;99.90;;;;;;4994795;28;20087;-73
2024/01/17 02:54:31;;;;;;;1.85;1.63;;;0.00;99.90;;;;;;5013812;28;20497;-73
2024/01/17 02:56:57;;;;;;;1.90;1.50;;;0.00;99.90;;;;;;5005031;28;20065;-73
2024/01/17 02:59:22;;;;;;;1.75;1.42;;;0.00;99.90;;;;;;5012657;28;20475;-73
2024/01/17 03:01:48;;;;;;;1.20;1.10;;;0.00;99.90;;;;;;5023635;28;20037;-73
2024/01/17 03:04:14;;;;;;;3.15;2.42;;;0.10;99.90;;;;;;4996137;28;20040;-74
2024/01/17 03:06:40;;;;;;;3.38;1.50;;;0.00;99.90;;;;;;4995462;28;20074;-74
2024/01/17 03:09:05;;;;;;;1.90;1.20;;;-0.10;99.90;;;;;;5011984;28;20386;-73
2024/01/17 03:11:31;;;;;;;3.55;1.45;;;-0.10;99.90;;;;;;5013200;28;20333;-74
2024/01/17 03:13:57;;;;;;;2.35;1.88;;;-0.10;99.90;;;;;;5001063;28;20069;-73
2024/01/17 03:16:22;;;;;;;1.70;1.55;;;-0.10;99.90;;;;;;5013678;28;20496;-74
2024/01/17 03:18:48;;;;;;;2.03;1.30;;;-0.10;99.90;;;;;;5011096;28;20040;-74
2024/01/17 03:21:14;;;;;;;1.90;1.20;;;-0.10;99.90;;;;;;5013205;28;20057;-74
2024/01/17 03:23:40;;;;;;;2.25;1.98;;;-0.10;99.90;;;;;;5010441;28;20041;-74
2024/01/17 03:26:06;;;;;;;2.28;1.73;;;-0.10;99.90;;;;;;5013531;28;20411;-74
2024/01/17 03:28:31;;;;;;;1.25;1.00;;;0.00;99.90;;;;;;5007914;28;20037;-74
2024/01/17 03:30:57;;;;;;;2.40;1.40;;;-0.10;99.90;;;;;;5019778;28;20548;-74
2024/01/17 03:33:23;;;;;;;1.75;1.58;;;-0.10;99.90;;;;;;5016578;28;20040;-74
2024/01/17 03:35:48;;;;;;;1.75;1.55;;;-0.10;99.90;;;;;;5011576;28;20080;-74
2024/01/17 03:38:18;;;;;;;1.67;1.58;;;0.00;99.90;;;;;;5002961;28;20497;-74
2024/01/17 03:40:44;;;;;;;2.15;1.95;;;-0.10;99.90;;;;;;5012398;28;20449;-73
2024/01/17 03:43:11;;;;;;;2.83;2.10;;;0.00;99.90;;;;;;5012070;28;20036;-74
2024/01/17 03:45:37;;;;;;;0.68;0.68;;;0.00;99.90;;;;;;5013170;28;20041;-74
2024/01/17 03:48:04;;;;;;;2.50;1.67;;;0.00;99.90;;;;;;5011830;28;20044;-73
2024/01/17 03:50:30;;;;;;;2.90;1.77;;;0.00;99.90;;;;;;5011804;28;20048;-73
2024/01/17 03:52:56;;;;;;;9.93;1.73;;;0.00;99.90;;;;;;5010695;28;20045;-73
2024/01/17 03:55:22;;;;;;;2.10;1.55;;;0.00;99.90;;;;;;5012183;28;20120;-73
2024/01/17 03:57:48;;;;;;;2.50;1.85;;;0.00;99.90;;;;;;5011606;28;20153;-73
2024/01/17 04:00:15;;;;;;;1.45;1.27;;;0.00;99.90;;;;;;5011893;28;20182;-73
2024/01/17 04:02:40;;;;;;;2.40;2.05;;;0.00;99.90;;;;;;5010768;28;20112;-73
2024/01/17 04:05:07;;;;;;;1.60;1.30;;;0.00;99.90;;;;;;5006494;28;20037;-73
2024/01/17 04:07:32;;;;;;;1.60;1.50;;;0.00;99.90;;;;;;5010981;28;20049;-73
2024/01/17 04:09:58;;;;;;;1.05;0.95;;;0.00;99.90;;;;;;5011152;28;20041;-73
2024/01/17 04:12:24;;;;;;;0.93;0.90;;;-0.10;99.90;;;;;;5012448;28;20413;-73
2024/01/17 04:14:49;;;;;;;2.30;1.77;;;-0.10;99.90;;;;;;5012762;28;20176;-73
2024/01/17 04:17:15;;;;;;;2.78;1.98;;;-0.10;99.90;;;;;;5007354;28;20569;-73
2024/01/17 04:19:41;;;;;;;4.20;1.17;;;-0.10;99.90;;;;;;5008048;28;20037;-73
2024/01/17 04:22:07;;;;;;;1.88;1.17;;;-0.10;99.90;;;;;;5024904;28;20076;-73
2024/01/17 04:24:33;;;;;;;2.53;1.73;;;-0.20;99.90;;;;;;5011684;28;20076;-73
2024/01/17 04:26:58;;;;;;;1.50;1.25;;;-0.20;99.90;;;;;;5023871;28;20041;-73
2024/01/17 04:29:24;;;;;;;2.03;1.83;;;-0.20;99.90;;;;;;5013124;28;20037;-73
2024/01/17 04:31:51;;;;;;;4.43;1.95;;;-0.20;99.90;;;;;;4994265;28;20212;-73
2024/01/17 04:34:16;;;;;;;2.05;1.40;;;-0.20;99.90;;;;;;5011560;28;20045;-73
2024/01/17 04:36:42;;;;;;;1.70;1.48;;;-0.20;99.90;;;;;;4996026;28;20056;-73
2024/01/17 04:39:08;;;;;;;2.58;1.90;;;-0.30;99.90;;;;;;4999781;28;20420;-74
2024/01/17 04:41:34;;;;;;;1.15;0.90;;;-0.30;99.90;;;;;;5009721;28;20044;-74
2024/01/17 04:44:00;;;;;;;3.65;1.45;;;-0.30;99.90;;;;;;5011440;28;20623;-73
2024/01/17 04:46:27;;;;;;;1.55;1.27;;;-0.30;99.90;;;;;;5010063;28;20049;-73
2024/01/17 04:48:53;;;;;;;1.83;1.65;;;-0.30;99.90;;;;;;5010315;28;20034;-73
2024/01/17 04:51:22;;;;;;;1.92;1.42;;;-0.30;99.90;;;;;;5010422;28;20044;-73
2024/01/17 04:53:48;;;;;;;0.93;0.90;;;-0.30;99.90;;;;;;5010908;28;20136;-73
2024/01/17 04:56:15;;;;;;;2.15;1.60;;;-0.30;99.90;;;;;;5024666;28;20133;-73
2024/01/17 04:58:43;;;;;;;2.38;1.30;;;-0.30;99.90;;;;;;4994049;28;20049;-73
2024/01/17 05:01:09;;;;;;;0.80;0.73;;;-0.30;99.90;;;;;;4992108;28;20064;-73
2024/01/17 05:03:35;;;;;;;1.45;1.10;;;-0.20;99.90;;;;;;5011959;28;20538;-72
2024/01/17 05:06:02;;;;;;;2.92;1.52;;;-0.20;99.90;;;;;;5009703;28;20042;-73
2024/01/17 05:08:28;;;;;;;1.73;1.20;;;-0.30;99.90;;;;;;5010668;28;20041;-73
2024/01/17 05:10:55;;;;;;;3.33;1.60;;;-0.20;99.90;;;;;;4996295;28;20033;-73
2024/01/17 05:13:21;;;;;;;3.60;1.08;;;-0.20;99.90;;;;;;4995217;28;20060;-73
2024/01/17 05:15:46;;;;;;;1.63;1.50;;;-0.20;99.90;;;;;;5010854;28;20094;-73
2024/01/17 05:18:13;;;;;;;2.63;1.50;;;-0.20;99.90;;;;;;5010937;28;20124;-73
2024/01/17 05:20:39;;;;;;;1.23;0.80;;;-0.20;99.90;;;;;;5007201;28;20094;-73
2024/01/17 05:23:04;;;;;;;1.67;1.35;;;-0.20;99.90;;;;;;5010174;28;20128;-73
2024/01/17 05:25:30;;;;;;;0.77;0.75;;;-0.20;99.90;;;;;;5010806;28;20129;-73
2024/01/17 05:27:56;;;;;;;1.67;1.10;;;-0.20;99.90;;;;;;5010785;28;20292;-73
2024/01/17 05:30:25;;;;;;;1.55;1.45;;;-0.30;99.90;;;;;;5009671;28;20037;-72
2024/01/17 05:32:52;;;;;;;3.55;1.65;;;-0.30;99.90;;;;;;5026532;28;20117;-73
2024/01/17 05:35:18;;;;;;;4.65;1.50;;;-0.20;99.90;;;;;;5010127;28;20172;-73
2024/01/17 05:37:45;;;;;;;1.73;1.55;;;-0.20;99.90;;;;;;5008503;28;20412;-73
2024/01/17 05:40:12;;;;;;;1.65;1.55;;;-0.20;99.90;;;;;;4993825;28;20088;-73
2024/01/17 05:42:39;;;;;;;2.55;1.80;;;-0.30;99.90;;;;;;5010610;28;20037;-72
2024/01/17 05:45:06;;;;;;;1.25;1.15;;;-0.20;99.90;;;;;;5009447;28;20120;-72
2024/01/17 05:47:32;;;;;;;0.80;0.73;;;-0.20;99.90;;;;;;5009638;28;20068;-72
2024/01/17 05:49:58;;;;;;;0.98;0.90;;;-0.20;99.90;;;;;;5017527;28;20038;-72
2024/01/17 05:52:26;;;;;;;1.77;0.60;;;-0.20;99.90;;;;;;5009941;28;20443;-72
2024/01/17 05:54:52;;;;;;;1.33;0.90;;;-0.20;99.90;;;;;;5020352;28;20037;-72
2024/01/17 05:57:18;;;;;;;1.38;1.05;;;-0.20;99.90;;;;;;5017379;28;20057;-72
2024/01/17 05:59:44;;;;;;;1.85;1.48;;;-0.20;99.90;;;;;;5014850;28;20049;-72
2024/01/17 06:02:09;;;;;;;2.10;1.00;;;-0.20;99.90;;;;;;5011007;28;20041;-72
2024/01/17 06:04:35;;;;;;;1.80;0.98;;;-0.20;99.90;;;;;;5010567;28;20404;-72
2024/01/17 06:07:01;;;;;;;4.75;1.17;;;-0.20;99.90;;;;;;5013217;28;20466;-72
2024/01/17 06:09:27;;;;;;;1.38;1.20;;;-0.30;99.90;;;;;;5006388;28;20034;-72
2024/01/17 06:11:53;;;;;;;2.63;1.58;;;-0.30;99.90;;;;;;5010197;28;20148;-71
2024/01/17 06:14:19;;;;;;;0.57;0.57;;;-0.30;99.90;;;;;;5019687;28;20604;-71
2024/01/17 06:16:46;;;;;;;2.63;1.17;;;-0.20;99.90;;;;;;5010547;28;20047;-71
2024/01/17 06:19:12;;;;;;;1.40;0.90;;;-0.30;99.90;;;;;;4999879;28;20407;-71
2024/01/17 06:21:38;;;;;;;2.50;1.35;;;-0.30;99.90;;;;;;5010656;28;20372;-71
2024/01/17 06:24:03;;;;;;;4.13;2.00;;;-0.30;99.90;;;;;;5008412;28;20068;-71
2024/01/17 06:26:29;;;;;;;0.63;0.63;;;-0.30;99.90;;;;;;5007510;28;20072;-71
2024/01/17 06:28:55;;;;;;;1.92;0.98;;;-0.30;99.90;;;;;;5009644;28;20029;-71
2024/01/17 06:31:25;;;;;;;1.67;1.17;;;-0.30;99.90;;;;;;5009512;28;20405;-71
2024/01/17 06:33:54;;;;;;;1.08;0.70;;;-0.40;99.90;;;;;;4993575;28;20030;-71
2024/01/17 06:36:20;;;;;;;1.30;1.20;;;-0.40;99.90;;;;;;5027181;28;20052;-71
2024/01/17 06:38:46;;;;;;;2.80;1.73;;;-0.50;99.90;;;;;;5010588;28;20365;-71
2024/01/17 06:41:12;;;;;;;2.22;1.17;;;-0.50;99.90;;;;;;5012730;28;20402;-71
2024/01/17 06:43:38;;;;;;;0.75;0.75;;;-0.50;99.90;;;;;;5012114;28;20079;-71
2024/01/17 06:46:04;;;;;;;1.25;1.00;;;-0.50;99.90;;;;;;5012875;28;20038;-70
2024/01/17 06:48:30;;;;;;;2.72;1.67;;;-0.60;99.90;;;;;;5010767;28;20075;-70
2024/01/17 06:50:56;;;;;;;1.40;1.30;;;-0.60;99.90;;;;;;5011198;28;20111;-71
2024/01/17 06:53:22;;;;;;;4.25;1.00;;;-0.70;99.90;;;;;;5011605;28;20029;-71
2024/01/17 06:55:48;;;;;;;1.08;0.98;;;-0.70;99.90;;;;;;5011808;28;20041;-71
2024/01/17 06:58:15;;;;;;;2.28;1.45;;;-0.80;99.90;;;;;;5014029;28;20441;-71
2024/01/17 07:00:42;;;;;;;3.88;1.20;;;-0.90;99.90;;;;;;5026457;28;20121;-72
2024/01/17 07:03:08;;;;;;;1.55;1.27;;;-0.90;99.90;;;;;;5006916;28;20191;-73
2024/01/17 07:05:33;;;;;;;1.77;0.98;;;-0.90;99.90;;;;;;5011841;28;20069;-72
2024/01/17 07:07:59;;;;;;;3.47;1.27;;;-1.00;99.90;;;;;;5013694;28;20088;-72
2024/01/17 07:10:25;;;;;;;1.75;0.98;;;-1.00;99.90;;;;;;5014351;28;20041;-72
2024/01/17 07:12:53;;;;;;;1.30;1.20;;;-1.00;99.90;;;;;;5011206;28;20041;-72
2024/01/17 07:15:19;;;;;;;1.05;1.00;;;-1.10;99.90;;;;;;5011902;28;20048;-72
2024/01/17 07:17:45;;;;;;;0.68;0.68;;;-1.10;99.90;;;;;;5012025;28;20033;-72
2024/01/17 07:20:12;;;;;;;1.10;0.90;;;-1.10;99.90;;;;;;5008453;28;20476;-73
2024/01/17 07:22:41;;;;;;;2.05;1.25;;;-1.20;99.90;;;;;;5002438;28;20446;-72
2024/01/17 07:25:15;;;;;;;0.80;0.77;;;-1.20;99.90;;;;;;5010823;28;20041;-72
2024/01/17 07:27:44;;;;;;;5.63;1.77;;;-1.20;99.90;;;;;;5011498;28;20041;-72
2024/01/17 07:30:11;;;;;;;0.98;0.88;;;-1.30;99.90;;;;;;5011902;28;20634;-71
2024/01/17 07:32:38;;;;;;;2.22;1.52;;;-1.20;99.90;;;;;;5011205;28;20429;-71
2024/01/17 07:35:04;;;;;;;5.25;1.55;;;-1.20;99.90;;;;;;5012149;28;20056;-71
2024/01/17 07:37:31;;;;;;;1.33;1.23;;;-1.20;99.90;;;;;;5012009;28;20052;-71
2024/01/17 07:39:57;;;;;;;1.10;0.88;;;-1.30;99.90;;;;;;5013212;28;20049;-71
2024/01/17 07:42:23;;;;;;;3.88;1.58;;;-1.30;99.90;;;;;;5013170;28;20044;-71
2024/01/17 07:44:49;;;;;;;0.90;0.80;;;-1.30;99.90;;;;;;5000390;28;20505;-71
2024/01/17 07:47:15;;;;;;;4.25;1.25;;;-1.30;99.90;;;;;;5012527;28;20037;-72
2024/01/17 07:49:42;;;;;;;4.47;2.17;;;-1.30;99.90;;;;;;4993741;28;20048;-71
2024/01/17 07:52:07;;;;;;;3.47;1.73;;;-1.30;99.90;;;;;;5010360;28;20543;-71
2024/01/17 07:54:33;;;;;;;1.05;0.95;;;-1.30;99.90;;;;;;5014712;28;20053;-72
2024/01/17 07:56:59;;;;;;;1.38;0.93;;;-1.40;99.90;;;;;;5013074;28;20045;-71
2024/01/17 07:59:27;;;;;;;1.38;0.95;;;-1.40;99.90;;;;;;5011792;28;20057;-71
2024/01/17 08:01:54;;;;;;;1.20;1.02;;;-1.40;99.90;;;;;;4996111;28;20037;-71
2024/01/17 08:04:20;;;;;;;1.63;0.82;;;-1.40;99.90;;;;;;5009492;28;20045;-72
2024/01/17 08:06:46;;;;;;;3.80;1.52;;;-1.40;99.90;;;;;;5011634;28;20045;-72
2024/01/17 08:09:21;;;;;;;1.83;1.50;;;-1.30;99.90;;;;;;5010309;28;20459;-71
2024/01/17 08:11:51;;;;;;;2.30;2.10;;;-1.30;99.90;;;;;;5003166;28;20546;-72
2024/01/17 08:14:17;;;;;;;4.05;2.53;;;-1.30;99.90;;;;;;5011055;28;20045;-72
2024/01/17 08:16:44;;;;;;;2.13;1.75;;;-1.30;99.90;;;;;;5012065;28;20276;-71
2024/01/17 08:19:10;;;;;;;2.50;1.50;;;-1.30;99.90;;;;;;5010539;28;20499;-71
2024/01/17 08:21:36;;;;;;;3.05;1.67;;;-1.30;99.90;;;;;;4996059;28;20040;-71
2024/01/17 08:24:03;;;;;;;1.30;1.20;;;-1.30;99.90;;;;;;5009635;28;20144;-71
2024/01/17 08:26:28;;;;;;;2.30;1.33;;;-1.30;99.90;;;;;;5028086;28;20103;-71
2024/01/17 08:28:55;;;;;;;7.80;1.05;;;-1.30;99.90;;;;;;5008319;28;20045;-72
2024/01/17 08:31:21;;;;;;;1.08;0.98;;;-1.30;99.90;;;;;;5012390;28;20037;-72
2024/01/17 08:33:46;;;;;;;1.58;0.90;;;-1.30;99.90;;;;;;5019471;28;20059;-72
2024/01/17 08:36:14;;;;;;;0.70;0.68;;;-1.30;99.90;;;;;;5012281;28;20045;-71
2024/01/17 08:38:40;;;;;;;1.33;1.20;;;-1.30;99.90;;;;;;5011151;28;20045;-71
2024/01/17 08:41:07;;;;;;;1.85;1.23;;;-1.30;99.90;;;;;;5012461;28;20049;-71
2024/01/17 08:43:33;;;;;;;1.85;0.85;;;-1.20;99.90;;;;;;5006650;28;20045;-72
2024/01/17 08:46:00;;;;;;;1.63;1.27;;;-1.20;99.90;;;;;;5011774;28;20064;-71
2024/01/17 08:48:26;;;;;;;0.93;0.88;;;-1.10;99.90;;;;;;5015040;28;20430;-72
2024/01/17 08:50:52;;;;;;;1.40;1.30;;;-1.10;99.90;;;;;;5011170;28;20044;-71
2024/01/17 08:53:18;;;;;;;3.55;1.77;;;-1.10;99.90;;;;;;5011146;28;20037;-72
2024/01/17 08:55:43;;;;;;;1.83;1.25;;;-1.10;99.90;;;;;;5011402;28;20044;-72
2024/01/17 08:58:09;;;;;;;3.38;2.00;;;-1.20;99.90;;;;;;4998325;28;20532;-71
2024/01/17 09:00:35;;;;;;;1.98;1.45;;;-1.10;99.90;;;;;;5011141;28;20051;-71
2024/01/17 09:03:00;;;;;;;1.58;0.85;;;-1.00;99.90;;;;;;5018110;28;20554;-71
2024/01/17 09:05:27;;;;;;;1.05;0.70;;;-1.00;99.90;;;;;;5018854;28;20045;-71
2024/01/17 09:07:53;;;;;;;1.83;1.23;;;-0.90;99.90;;;;;;5028418;28;20452;-71
2024/01/17 09:10:20;;;;;;;0.88;0.60;;;-0.90;99.90;;;;;;5012458;28;20042;-72
2024/01/17 09:12:46;;;;;;;3.80;1.38;;;-0.80;99.90;;;;;;5002984;28;20075;-71
2024/01/17 09:15:12;;;;;;;0.70;0.68;;;-0.80;99.90;;;;;;5011236;28;20042;-72
2024/01/17 09:17:38;;;;;;;3.85;1.67;;;-0.80;99.90;;;;;;5010605;28;20115;-72
2024/01/17 09:20:06;;;;;;;1.85;1.33;;;-0.80;99.90;;;;;;5011134;28;20046;-71
2024/01/17 09:22:32;;;;;;;1.00;0.88;;;-0.70;99.90;;;;;;5010783;28;20044;-72
2024/01/17 09:25:00;;;;;;;1.98;1.10;;;-0.60;99.90;;;;;;5007343;28;20033;-72
2024/01/17 09:27:27;;;;;;;1.67;1.35;;;-0.60;99.90;;;;;;5013114;28;20293;-72
2024/01/17 09:29:53;;;;;;;2.13;1.08;;;-0.50;99.90;;;;;;5008060;28;20041;-71
2024/01/17 09:32:18;;;;;;;2.42;1.63;;;-0.50;99.90;;;;;;5009420;28;20087;-71
2024/01/17 09:34:47;;;;;;;1.25;0.68;;;-0.40;99.90;;;;;;5007225;28;20045;-72
2024/01/17 09:37:14;;;;;;;1.15;0.85;;;-0.40;99.90;;;;;;5008593;28;20104;-72
2024/01/17 09:39:39;;;;;;;0.93;0.68;;;-0.30;99.90;;;;;;5011639;28;20047;-71
2024/01/17 09:42:06;;;;;;;1.77;1.23;;;-0.30;99.90;;;;;;5009427;28;20132;-71
2024/01/17 09:44:33;;;;;;;1.40;1.05;;;-0.20;99.90;;;;;;5011363;28;20049;-72
2024/01/17 09:47:00;;;;;;;1.27;0.98;;;-0.20;99.90;;;;;;5011090;28;20041;-71
2024/01/17 09:49:27;;;;;;;3.08;2.33;;;-0.20;99.90;;;;;;5011099;28;20256;-72
2024/01/17 09:51:53;;;;;;;1.02;0.93;;;-0.10;99.90;;;;;;5011130;28;20045;-72
2024/01/17 09:54:26;;;;;;;1.17;0.98;;;-0.10;99.90;;;;;;5010715;28;20489;-71
2024/01/17 09:56:55;;;;;;;1.98;0.80;;;0.00;99.90;;;;;;4992507;28;20058;-72
2024/01/17 09:59:27;;;;;;;0.82;0.70;;;0.00;99.90;;;;;;5010741;28;20061;-71
2024/01/17 10:01:56;;;;;;;1.88;1.52;;;0.00;99.90;;;;;;5010797;28;20042;-72
2024/01/17 10:04:24;;;;;;;0.70;0.50;;;0.10;99.90;;;;;;5008187;28;20048;-72
2024/01/17 10:06:55;;;;;;;2.05;1.30;;;0.10;99.90;;;;;;5010469;28;20068;-72
2024/01/17 10:09:24;;;;;;;2.05;1.35;;;0.10;99.90;;;;;;5009882;28;20044;-72
2024/01/17 10:11:54;;;;;;;1.63;1.38;;;0.10;99.90;;;;;;5013548;28;20124;-72
2024/01/17 10:14:23;;;;;;;4.15;2.20;;;0.20;99.90;;;;;;4996625;28;20069;-72
2024/01/17 10:16:49;;;;;;;2.33;1.13;;;0.20;99.90;;;;;;5014022;28;20037;-72
2024/01/17 10:19:16;;;;;;;2.90;1.75;;;0.20;99.90;;;;;;5013193;28;20087;-72
2024/01/17 10:21:43;;;;;;;3.15;1.30;;;0.30;99.90;;;;;;5021887;28;20041;-72
2024/01/17 10:24:10;;;;;;;3.13;1.90;;;0.30;99.90;;;;;;5012342;28;20045;-72
2024/01/17 10:26:39;;;;;;;1.45;1.10;;;0.30;99.90;;;;;;5015653;28;20041;-72
2024/01/17 10:29:04;;;;;;;2.00;1.25;;;0.30;99.90;;;;;;5012056;28;20038;-72
2024/01/17 10:31:30;;;;;;;2.45;1.25;;;0.30;99.90;;;;;;5020632;28;20382;-72
2024/01/17 10:33:56;;;;;;;2.85;1.13;;;0.30;99.90;;;;;;5014866;28;20049;-72
2024/01/17 10:36:22;;;;;;;2.28;1.20;;;0.40;99.90;;;;;;5022958;28;20041;-72
2024/01/17 10:38:49;;;;;;;2.25;1.17;;;0.40;99.90;;;;;;5013338;28;20029;-72
2024/01/17 10:41:15;;;;;;;0.70;0.52;;;0.40;99.90;;;;;;5020610;28;20069;-70
2024/01/17 10:43:57;;;;;;;1.48;1.27;;;0.50;99.90;;;;;;5013283;28;20095;-71
2024/01/17 10:46:23;;;;;;;2.05;1.15;;;0.50;99.90;;;;;;5014072;28;20038;-72
2024/01/17 10:48:50;;;;;;;1.20;0.80;;;0.50;99.90;;;;;;5013252;28;20056;-72
2024/01/17 10:51:20;;;;;;;1.50;0.85;;;0.60;99.90;;;;;;5013017;28;20416;-72
2024/01/17 10:53:55;;;;;;;1.27;0.45;;;0.60;99.90;;;;;;5012542;28;20038;-72
2024/01/17 10:56:22;;;;;;;0.93;0.73;;;0.60;99.90;;;;;;5013161;28;20060;-72
2024/01/17 10:58:49;;;;;;;1.30;1.20;;;0.50;99.90;;;;;;5013508;28;20516;-72
2024/01/17 11:01:25;;;;;;;1.70;0.90;;;0.60;99.90;;;;;;5012435;28;20029;-72
2024/01/17 11:03:54;;;;;;;1.08;0.95;;;0.50;99.90;;;;;;5012363;28;20092;-72
2024/01/17 11:06:22;;;;;;;2.80;1.40;;;0.50;99.90;;;;;;5012687;28;20048;-72
2024/01/17 11:08:52;;;;;;;7.35;2.13;;;0.60;99.90;;;;;;5000724;28;20059;-72
2024/01/17 11:11:19;;;;;;;0.98;0.70;;;0.60;99.90;;;;;;5012490;28;20088;-72
2024/01/17 11:13:46;;;;;;;1.02;0.93;;;0.60;99.90;;;;;;5013715;28;20115;-71
2024/01/17 11:16:15;;;;;;;4.00;1.20;;;0.60;99.90;;;;;;4994521;28;20052;-72
2024/01/17 11:18:42;;;;;;;2.25;1.20;;;0.60;99.90;;;;;;5011599;28;20045;-73
2024/01/17 11:21:08;;;;;;;2.08;1.55;;;0.60;99.90;;;;;;5012521;28;20406;-73
2024/01/17 11:23:52;;;;;;;4.38;1.23;;;0.70;99.90;;;;;;5010115;28;20131;-73
2024/01/17 11:26:37;;;;;;;0.77;0.60;;;0.70;99.90;;;;;;5011718;28;20080;-72
2024/01/17 11:29:25;;;;;;;2.25;1.10;;;0.70;99.90;;;;;;5012536;28;20072;-72
2024/01/17 11:31:58;;;;;;;0.55;0.55;;;0.70;99.90;;;;;;5010543;28;20038;-73
2024/01/17 11:34:24;;;;;;;1.30;0.85;;;0.80;99.90;;;;;;5010883;28;20195;-73
2024/01/17 11:36:50;;;;;;;5.55;1.90;;;0.80;99.90;;;;;;5014172;28;20072;-73
2024/01/17 11:39:17;;;;;;;2.45;1.00;;;0.80;99.90;;;;;;5009793;28;20037;-73
2024/01/17 11:41:44;;;;;;;1.77;1.35;;;0.80;99.90;;;;;;5014691;28;20405;-73
2024/01/17 11:44:12;;;;;;;2.45;1.33;;;0.90;99.90;;;;;;5013989;28;20068;-73
2024/01/17 11:46:38;;;;;;;3.13;0.95;;;0.80;99.90;;;;;;5001304;28;20049;-73
2024/01/17 11:49:05;;;;;;;0.95;0.95;;;0.80;99.90;;;;;;5013023;28;20120;-73
2024/01/17 11:51:34;;;;;;;0.88;0.60;;;0.90;99.90;;;;;;5011975;28;20057;-73
2024/01/17 11:54:05;;;;;;;0.98;0.82;;;0.90;99.90;;;;;;5012276;28;20493;-73
2024/01/17 11:56:31;;;;;;;2.70;1.42;;;0.90;99.90;;;;;;5028354;28;20393;-73
2024/01/17 11:59:09;;;;;;;2.92;1.25;;;0.90;99.90;;;;;;5011524;28;20105;-73
2024/01/17 12:01:34;;;;;;;0.95;0.75;;;0.90;99.90;;;;;;4995618;28;20039;-73
2024/01/17 12:04:11;;;;;;;6.03;0.98;;;0.90;99.90;;;;;;5015784;28;20038;-73
2024/01/17 12:06:41;;;;;;;1.42;1.17;;;1.00;99.90;;;;;;5020094;28;20099;-73
2024/01/17 12:09:15;;;;;;;1.35;1.05;;;1.00;99.90;;;;;;5010125;28;20111;-73
2024/01/17 12:11:42;;;;;;;4.47;1.17;;;1.10;99.90;;;;;;5013932;28;20519;-73
2024/01/17 12:14:08;;;;;;;3.53;1.85;;;1.20;99.90;;;;;;5010606;28;20073;-73
2024/01/17 12:16:33;;;;;;;2.00;1.45;;;1.10;99.90;;;;;;5013833;28;20657;-74
2024/01/17 12:19:00;;;;;;;1.85;1.58;;;1.20;99.90;;;;;;5010364;28;20175;-74
2024/01/17 12:21:26;;;;;;;4.53;1.85;;;1.10;99.90;;;;;;4994007;28;20037;-74
2024/01/17 12:23:52;;;;;;;0.50;0.40;;;1.10;99.90;;;;;;4992794;28;20030;-74
2024/01/17 12:26:18;;;;;;;2.60;1.75;;;1.20;99.90;;;;;;5010746;28;20389;-73
2024/01/17 12:28:45;;;;;;;1.17;1.05;;;1.10;99.90;;;;;;5018628;28;20042;-73
2024/01/17 12:31:10;;;;;;;1.65;1.05;;;1.10;99.90;;;;;;5009296;28;20045;-73
2024/01/17 12:33:37;;;;;;;1.25;0.98;;;1.20;99.90;;;;;;4999635;28;20041;-73
2024/01/17 12:36:06;;;;;;;2.65;1.20;;;1.20;99.90;;;;;;5012767;28;20041;-73
2024/01/17 12:38:34;;;;;;;1.20;0.65;;;1.20;99.90;;;;;;5009250;28;20034;-73
2024/01/17 12:41:03;;;;;;;3.58;1.25;;;1.30;99.90;;;;;;5004657;28;20047;-73
2024/01/17 12:43:29;;;;;;;1.70;1.02;;;1.30;99.90;;;;;;5004902;28;20033;-73
2024/01/17 12:45:56;;;;;;;7.47;1.33;;;1.30;99.90;;;;;;5010701;28;20044;-73
2024/01/17 12:48:22;;;;;;;0.80;0.60;;;1.30;99.90;;;;;;5012908;28;20319;-73
2024/01/17 12:50:54;;;;;;;2.65;0.95;;;1.30;99.90;;;;;;5012264;28;20120;-73